sensor_id;sensor_type;location;lat;lon;timestamp;temperature;humidity
14908;DHT22;7545;52.092;7.006;2023-05-10T00:02:09;15.60;99.90
14908;DHT22;7545;52.092;7.006;2023-05-10T00:04:34;15.60;99.90
14908;DHT22;7545;52.092;7.006;2023-05-10T00:07:00;15.60;99.90
14908;DHT22;7545;52.092;7.006;2023-05-10T00:09:25;15.60;99.90
14908;DHT22;7545;52.092;7.006;2023-05-10T00:11:51;15.60;99.90
14908;DHT22;7545;52.092;7.006;2023-05-10T00:14:17;15.60;99.90
14908;DHT22;7545;52.092;7.006;2023-05-10T00:16:42;15.60;99.90
14908;DHT22;7545;52.092;7.006;2023-05-10T00:19:08;15.50;99.90
14908;DHT22;7545;52.092;7.006;2023-05-10T00:21:34;15.50;99.90
14908;DHT22;7545;52.092;7.006;2023-05-10T00:24:00;15.40;99.90
14908;DHT22;7545;52.092;7.006;2023-05-10T00:26:28;15.30;99.90
14908;DHT22;7545;52.092;7.006;2023-05-10T00:28:54;15.20;99.90
14908;DHT22;7545;52.092;7.006;2023-05-10T00:31:20;15.00;99.90
14908;DHT22;7545;52.092;7.006;2023-05-10T00:33:45;15.00;99.90
14908;DHT22;7545;52.092;7.006;2023-05-10T00:36:11;14.90;99.90
14908;DHT22;7545;52.092;7.006;2023-05-10T00:38:37;14.90;99.90
14908;DHT22;7545;52.092;7.006;2023-05-10T00:41:03;14.90;99.90
14908;DHT22;7545;52.092;7.006;2023-05-10T00:43:29;14.90;99.90
14908;DHT22;7545;52.092;7.006;2023-05-10T00:45:54;14.90;99.90
14908;DHT22;7545;52.092;7.006;2023-05-10T00:48:21;14.90;99.90
14908;DHT22;7545;52.092;7.006;2023-05-10T00:50:47;14.90;99.90
14908;DHT22;7545;52.092;7.006;2023-05-10T00:53:12;14.90;99.90
14908;DHT22;7545;52.092;7.006;2023-05-10T00:55:38;14.80;99.90
14908;DHT22;7545;52.092;7.006;2023-05-10T00:58:04;14.80;99.90
14908;DHT22;7545;52.092;7.006;2023-05-10T01:00:32;14.90;99.90
14908;DHT22;7545;52.092;7.006;2023-05-10T01:02:58;14.90;99.90
14908;DHT22;7545;52.092;7.006;2023-05-10T01:05:24;14.80;99.90
14908;DHT22;7545;52.092;7.006;2023-05-10T01:07:50;14.90;99.90
14908;DHT22;7545;52.092;7.006;2023-05-10T01:10:15;14.80;99.90
14908;DHT22;7545;52.092;7.006;2023-05-10T01:12:43;14.80;99.90
14908;DHT22;7545;52.092;7.006;2023-05-10T01:15:10;14.80;99.90
14908;DHT22;7545;52.092;7.006;2023-05-10T01:17:38;14.80;99.90
14908;DHT22;7545;52.092;7.006;2023-05-10T01:20:05;14.80;99.90
14908;DHT22;7545;52.092;7.006;2023-05-10T01:36:55;14.70;99.90
14908;DHT22;7545;52.092;7.006;2023-05-10T01:39:24;14.70;99.90
14908;DHT22;7545;52.092;7.006;2023-05-10T01:42:02;14.70;99.90
14908;DHT22;7545;52.092;7.006;2023-05-10T01:47:20;14.70;99.90
14908;DHT22;7545;52.092;7.006;2023-05-10T01:49:52;14.70;99.90
14908;DHT22;7545;52.092;7.006;2023-05-10T01:52:25;14.70;99.90
14908;DHT22;7545;52.092;7.006;2023-05-10T01:54:59;14.70;99.90
14908;DHT22;7545;52.092;7.006;2023-05-10T01:57:27;14.70;99.90
14908;DHT22;7545;52.092;7.006;2023-05-10T01:59:56;14.70;99.90
14908;DHT22;7545;52.092;7.006;2023-05-10T02:02:24;14.70;99.90
14908;DHT22;7545;52.092;7.006;2023-05-10T02:04:51;14.70;99.90
14908;DHT22;7545;52.092;7.006;2023-05-10T02:07:19;14.70;99.90
14908;DHT22;7545;52.092;7.006;2023-05-10T02:09:46;14.70;99.90
14908;DHT22;7545;52.092;7.006;2023-05-10T02:12:13;14.70;99.90
14908;DHT22;7545;52.092;7.006;2023-05-10T02:14:41;14.70;99.90
14908;DHT22;7545;52.092;7.006;2023-05-10T02:17:08;14.70;99.90
14908;DHT22;7545;52.092;7.006;2023-05-10T02:19:37;14.70;99.90
14908;DHT22;7545;52.092;7.006;2023-05-10T02:22:03;14.70;99.90
14908;DHT22;7545;52.092;7.006;2023-05-10T02:24:30;14.70;99.90
14908;DHT22;7545;52.092;7.006;2023-05-10T02:26:57;14.70;99.90
14908;DHT22;7545;52.092;7.006;2023-05-10T02:29:25;14.70;99.90
14908;DHT22;7545;52.092;7.006;2023-05-10T02:31:53;14.70;99.90
14908;DHT22;7545;52.092;7.006;2023-05-10T02:34:21;14.70;99.90
14908;DHT22;7545;52.092;7.006;2023-05-10T02:36:48;14.70;99.90
14908;DHT22;7545;52.092;7.006;2023-05-10T02:39:14;14.70;99.90
14908;DHT22;7545;52.092;7.006;2023-05-10T02:41:41;14.60;99.90
14908;DHT22;7545;52.092;7.006;2023-05-10T02:44:07;14.60;99.90
14908;DHT22;7545;52.092;7.006;2023-05-10T02:46:35;14.60;99.90
14908;DHT22;7545;52.092;7.006;2023-05-10T02:49:03;14.60;99.90
14908;DHT22;7545;52.092;7.006;2023-05-10T02:51:31;14.70;99.90
14908;DHT22;7545;52.092;7.006;2023-05-10T02:54:04;14.70;99.90
14908;DHT22;7545;52.092;7.006;2023-05-10T02:56:35;14.60;99.90
14908;DHT22;7545;52.092;7.006;2023-05-10T02:59:01;14.60;99.90
14908;DHT22;7545;52.092;7.006;2023-05-10T03:01:27;14.60;99.90
14908;DHT22;7545;52.092;7.006;2023-05-10T03:03:52;14.60;99.90
14908;DHT22;7545;52.092;7.006;2023-05-10T03:06:18;14.60;99.90
14908;DHT22;7545;52.092;7.006;2023-05-10T03:08:45;14.60;99.90
14908;DHT22;7545;52.092;7.006;2023-05-10T03:11:47;14.60;99.90
14908;DHT22;7545;52.092;7.006;2023-05-10T03:17:04;14.50;99.90
14908;DHT22;7545;52.092;7.006;2023-05-10T03:19:40;14.50;99.90
14908;DHT22;7545;52.092;7.006;2023-05-10T03:22:10;14.50;99.90
14908;DHT22;7545;52.092;7.006;2023-05-10T03:24:36;14.60;99.90
14908;DHT22;7545;52.092;7.006;2023-05-10T03:27:05;14.60;99.90
14908;DHT22;7545;52.092;7.006;2023-05-10T03:29:31;14.60;99.90
14908;DHT22;7545;52.092;7.006;2023-05-10T03:31:58;14.60;99.90
14908;DHT22;7545;52.092;7.006;2023-05-10T03:34:25;14.60;99.90
14908;DHT22;7545;52.092;7.006;2023-05-10T03:36:51;14.60;99.90
14908;DHT22;7545;52.092;7.006;2023-05-10T03:39:16;14.60;99.90
14908;DHT22;7545;52.092;7.006;2023-05-10T03:41:42;14.60;99.90
14908;DHT22;7545;52.092;7.006;2023-05-10T03:44:07;14.60;99.90
14908;DHT22;7545;52.092;7.006;2023-05-10T03:46:33;14.60;99.90
14908;DHT22;7545;52.092;7.006;2023-05-10T03:48:59;14.60;99.90
14908;DHT22;7545;52.092;7.006;2023-05-10T03:51:24;14.60;99.90
14908;DHT22;7545;52.092;7.006;2023-05-10T03:53:53;14.60;99.90
14908;DHT22;7545;52.092;7.006;2023-05-10T03:56:19;14.60;99.90
14908;DHT22;7545;52.092;7.006;2023-05-10T03:58:46;14.60;99.90
14908;DHT22;7545;52.092;7.006;2023-05-10T04:01:12;14.60;99.90
14908;DHT22;7545;52.092;7.006;2023-05-10T04:03:38;14.60;99.90
14908;DHT22;7545;52.092;7.006;2023-05-10T04:06:04;14.60;99.90
14908;DHT22;7545;52.092;7.006;2023-05-10T04:08:31;14.60;99.90
14908;DHT22;7545;52.092;7.006;2023-05-10T04:11:07;14.70;99.90
14908;DHT22;7545;52.092;7.006;2023-05-10T04:13:33;14.70;99.90
14908;DHT22;7545;52.092;7.006;2023-05-10T04:15:58;14.60;99.90
14908;DHT22;7545;52.092;7.006;2023-05-10T04:18:24;14.60;99.90
14908;DHT22;7545;52.092;7.006;2023-05-10T04:20:50;14.60;99.90
14908;DHT22;7545;52.092;7.006;2023-05-10T04:23:16;14.60;99.90
14908;DHT22;7545;52.092;7.006;2023-05-10T04:25:42;14.60;99.90
14908;DHT22;7545;52.092;7.006;2023-05-10T04:28:08;14.50;99.90
14908;DHT22;7545;52.092;7.006;2023-05-10T04:30:34;14.60;99.90
14908;DHT22;7545;52.092;7.006;2023-05-10T04:33:00;14.60;99.90
14908;DHT22;7545;52.092;7.006;2023-05-10T04:35:28;14.60;99.90
14908;DHT22;7545;52.092;7.006;2023-05-10T04:37:54;14.60;99.90
14908;DHT22;7545;52.092;7.006;2023-05-10T04:40:20;14.60;99.90
14908;DHT22;7545;52.092;7.006;2023-05-10T04:42:46;14.60;99.90
14908;DHT22;7545;52.092;7.006;2023-05-10T04:45:12;14.60;99.90
14908;DHT22;7545;52.092;7.006;2023-05-10T04:47:37;14.60;99.90
14908;DHT22;7545;52.092;7.006;2023-05-10T04:50:04;14.70;99.90
14908;DHT22;7545;52.092;7.006;2023-05-10T04:52:29;14.70;99.90
14908;DHT22;7545;52.092;7.006;2023-05-10T04:54:55;14.70;99.90
14908;DHT22;7545;52.092;7.006;2023-05-10T04:57:21;14.70;99.90
14908;DHT22;7545;52.092;7.006;2023-05-10T04:59:46;14.70;99.90
14908;DHT22;7545;52.092;7.006;2023-05-10T05:02:12;14.70;99.90
14908;DHT22;7545;52.092;7.006;2023-05-10T05:04:37;14.70;99.90
14908;DHT22;7545;52.092;7.006;2023-05-10T05:07:03;14.80;99.90
14908;DHT22;7545;52.092;7.006;2023-05-10T05:09:29;14.70;99.90
14908;DHT22;7545;52.092;7.006;2023-05-10T05:11:55;14.80;99.90
14908;DHT22;7545;52.092;7.006;2023-05-10T05:14:20;14.80;99.90
14908;DHT22;7545;52.092;7.006;2023-05-10T05:16:46;14.80;99.90
14908;DHT22;7545;52.092;7.006;2023-05-10T05:19:12;14.80;99.90
14908;DHT22;7545;52.092;7.006;2023-05-10T05:21:37;14.80;99.90
14908;DHT22;7545;52.092;7.006;2023-05-10T05:24:03;14.80;99.90
14908;DHT22;7545;52.092;7.006;2023-05-10T05:26:29;14.80;99.90
14908;DHT22;7545;52.092;7.006;2023-05-10T05:28:55;14.70;99.90
14908;DHT22;7545;52.092;7.006;2023-05-10T05:31:21;14.80;99.90
14908;DHT22;7545;52.092;7.006;2023-05-10T05:33:46;14.80;99.90
14908;DHT22;7545;52.092;7.006;2023-05-10T05:36:12;14.80;99.90
14908;DHT22;7545;52.092;7.006;2023-05-10T05:38:38;14.80;99.90
14908;DHT22;7545;52.092;7.006;2023-05-10T05:41:03;14.90;99.90
14908;DHT22;7545;52.092;7.006;2023-05-10T05:43:29;14.90;99.90
14908;DHT22;7545;52.092;7.006;2023-05-10T05:45:55;14.90;99.90
14908;DHT22;7545;52.092;7.006;2023-05-10T05:48:23;14.90;99.90
14908;DHT22;7545;52.092;7.006;2023-05-10T05:50:48;14.90;99.90
14908;DHT22;7545;52.092;7.006;2023-05-10T05:53:14;14.90;99.90
14908;DHT22;7545;52.092;7.006;2023-05-10T05:55:50;14.90;99.90
14908;DHT22;7545;52.092;7.006;2023-05-10T05:58:15;14.90;99.90
14908;DHT22;7545;52.092;7.006;2023-05-10T06:00:41;14.90;99.90
14908;DHT22;7545;52.092;7.006;2023-05-10T06:03:07;14.90;99.90
14908;DHT22;7545;52.092;7.006;2023-05-10T06:05:32;14.90;99.90
14908;DHT22;7545;52.092;7.006;2023-05-10T06:07:59;14.90;99.90
14908;DHT22;7545;52.092;7.006;2023-05-10T06:10:25;14.90;99.90
14908;DHT22;7545;52.092;7.006;2023-05-10T06:12:51;14.90;99.90
14908;DHT22;7545;52.092;7.006;2023-05-10T06:15:18;14.90;99.90
14908;DHT22;7545;52.092;7.006;2023-05-10T06:17:43;14.90;99.90
14908;DHT22;7545;52.092;7.006;2023-05-10T06:20:10;15.00;99.90
14908;DHT22;7545;52.092;7.006;2023-05-10T06:22:36;15.00;99.90
14908;DHT22;7545;52.092;7.006;2023-05-10T06:25:01;14.90;99.90
14908;DHT22;7545;52.092;7.006;2023-05-10T06:27:27;15.00;99.90
14908;DHT22;7545;52.092;7.006;2023-05-10T06:29:53;15.00;99.90
14908;DHT22;7545;52.092;7.006;2023-05-10T06:32:19;15.00;99.90
14908;DHT22;7545;52.092;7.006;2023-05-10T06:34:44;15.00;99.90
14908;DHT22;7545;52.092;7.006;2023-05-10T06:37:11;15.00;99.90
14908;DHT22;7545;52.092;7.006;2023-05-10T06:39:37;15.00;99.90
14908;DHT22;7545;52.092;7.006;2023-05-10T06:42:03;15.00;99.90
14908;DHT22;7545;52.092;7.006;2023-05-10T06:44:29;15.10;99.90
14908;DHT22;7545;52.092;7.006;2023-05-10T06:46:55;15.10;99.90
14908;DHT22;7545;52.092;7.006;2023-05-10T06:49:21;15.10;99.90
14908;DHT22;7545;52.092;7.006;2023-05-10T06:51:47;15.10;99.90
14908;DHT22;7545;52.092;7.006;2023-05-10T06:54:13;15.10;99.90
14908;DHT22;7545;52.092;7.006;2023-05-10T06:56:39;15.10;99.90
14908;DHT22;7545;52.092;7.006;2023-05-10T06:59:05;15.10;99.90
14908;DHT22;7545;52.092;7.006;2023-05-10T07:01:30;15.10;99.90
14908;DHT22;7545;52.092;7.006;2023-05-10T07:03:56;15.20;99.90
14908;DHT22;7545;52.092;7.006;2023-05-10T07:06:21;15.20;99.90
14908;DHT22;7545;52.092;7.006;2023-05-10T07:08:47;15.30;99.90
14908;DHT22;7545;52.092;7.006;2023-05-10T07:11:13;15.30;99.90
14908;DHT22;7545;52.092;7.006;2023-05-10T07:13:38;15.40;99.90
14908;DHT22;7545;52.092;7.006;2023-05-10T07:16:06;15.40;99.90
14908;DHT22;7545;52.092;7.006;2023-05-10T07:18:33;15.50;99.90
14908;DHT22;7545;52.092;7.006;2023-05-10T07:20:58;15.50;99.90
14908;DHT22;7545;52.092;7.006;2023-05-10T07:23:24;15.40;99.90
14908;DHT22;7545;52.092;7.006;2023-05-10T07:25:51;15.50;99.90
14908;DHT22;7545;52.092;7.006;2023-05-10T07:28:18;15.50;99.90
14908;DHT22;7545;52.092;7.006;2023-05-10T07:30:44;15.60;99.90
14908;DHT22;7545;52.092;7.006;2023-05-10T07:33:10;15.60;99.90
14908;DHT22;7545;52.092;7.006;2023-05-10T07:35:36;15.60;99.90
14908;DHT22;7545;52.092;7.006;2023-05-10T07:38:02;15.60;99.90
14908;DHT22;7545;52.092;7.006;2023-05-10T07:40:28;15.70;99.90
14908;DHT22;7545;52.092;7.006;2023-05-10T07:42:54;15.70;99.90
14908;DHT22;7545;52.092;7.006;2023-05-10T07:45:20;15.80;99.90
14908;DHT22;7545;52.092;7.006;2023-05-10T07:47:45;15.80;99.90
14908;DHT22;7545;52.092;7.006;2023-05-10T07:50:11;15.80;99.90
14908;DHT22;7545;52.092;7.006;2023-05-10T07:52:36;15.80;99.90
14908;DHT22;7545;52.092;7.006;2023-05-10T07:55:02;15.80;99.90
14908;DHT22;7545;52.092;7.006;2023-05-10T07:57:28;15.80;99.90
14908;DHT22;7545;52.092;7.006;2023-05-10T07:59:53;15.80;99.90
14908;DHT22;7545;52.092;7.006;2023-05-10T08:02:19;15.80;99.90
14908;DHT22;7545;52.092;7.006;2023-05-10T08:04:44;15.70;99.90
14908;DHT22;7545;52.092;7.006;2023-05-10T08:07:10;15.70;99.90
14908;DHT22;7545;52.092;7.006;2023-05-10T08:09:36;15.60;99.90
14908;DHT22;7545;52.092;7.006;2023-05-10T08:12:02;15.70;99.90
14908;DHT22;7545;52.092;7.006;2023-05-10T08:14:29;15.70;99.90
14908;DHT22;7545;52.092;7.006;2023-05-10T08:16:55;15.70;99.90
14908;DHT22;7545;52.092;7.006;2023-05-10T08:19:20;15.60;99.90
14908;DHT22;7545;52.092;7.006;2023-05-10T08:21:47;15.60;99.90
14908;DHT22;7545;52.092;7.006;2023-05-10T08:24:13;15.60;99.90
14908;DHT22;7545;52.092;7.006;2023-05-10T08:26:38;15.70;99.90
14908;DHT22;7545;52.092;7.006;2023-05-10T08:29:04;15.70;99.90
14908;DHT22;7545;52.092;7.006;2023-05-10T08:31:30;15.70;99.90
14908;DHT22;7545;52.092;7.006;2023-05-10T08:33:55;15.70;99.90
14908;DHT22;7545;52.092;7.006;2023-05-10T08:36:21;15.80;99.90
14908;DHT22;7545;52.092;7.006;2023-05-10T08:38:53;15.80;99.90
14908;DHT22;7545;52.092;7.006;2023-05-10T08:41:22;15.70;99.90
14908;DHT22;7545;52.092;7.006;2023-05-10T08:43:50;15.80;99.90
14908;DHT22;7545;52.092;7.006;2023-05-10T08:46:17;15.80;99.90
14908;DHT22;7545;52.092;7.006;2023-05-10T08:48:45;15.80;99.90
14908;DHT22;7545;52.092;7.006;2023-05-10T08:51:14;15.80;99.90
14908;DHT22;7545;52.092;7.006;2023-05-10T08:53:40;15.80;99.90
14908;DHT22;7545;52.092;7.006;2023-05-10T08:56:06;15.80;99.90
14908;DHT22;7545;52.092;7.006;2023-05-10T08:58:38;15.80;99.90
14908;DHT22;7545;52.092;7.006;2023-05-10T09:01:04;15.80;99.90
14908;DHT22;7545;52.092;7.006;2023-05-10T09:03:30;15.80;99.90
14908;DHT22;7545;52.092;7.006;2023-05-10T09:05:56;15.70;99.90
14908;DHT22;7545;52.092;7.006;2023-05-10T09:08:26;15.70;99.90
14908;DHT22;7545;52.092;7.006;2023-05-10T09:10:52;15.70;99.90
14908;DHT22;7545;52.092;7.006;2023-05-10T09:13:18;15.70;99.90
14908;DHT22;7545;52.092;7.006;2023-05-10T09:15:45;15.70;99.90
14908;DHT22;7545;52.092;7.006;2023-05-10T09:18:11;15.80;99.90
14908;DHT22;7545;52.092;7.006;2023-05-10T09:20:37;15.80;99.90
14908;DHT22;7545;52.092;7.006;2023-05-10T09:23:02;15.80;99.90
14908;DHT22;7545;52.092;7.006;2023-05-10T09:25:28;15.90;99.90
14908;DHT22;7545;52.092;7.006;2023-05-10T09:27:54;15.90;99.90
14908;DHT22;7545;52.092;7.006;2023-05-10T09:30:28;15.90;99.90
14908;DHT22;7545;52.092;7.006;2023-05-10T09:32:54;16.00;99.90
14908;DHT22;7545;52.092;7.006;2023-05-10T09:35:22;16.00;99.90
14908;DHT22;7545;52.092;7.006;2023-05-10T09:37:54;16.10;99.90
14908;DHT22;7545;52.092;7.006;2023-05-10T09:40:23;16.10;99.90
14908;DHT22;7545;52.092;7.006;2023-05-10T09:45:17;16.10;99.90
14908;DHT22;7545;52.092;7.006;2023-05-10T09:47:43;16.20;99.90
14908;DHT22;7545;52.092;7.006;2023-05-10T09:50:09;16.20;99.90
14908;DHT22;7545;52.092;7.006;2023-05-10T09:53:04;16.20;99.90
14908;DHT22;7545;52.092;7.006;2023-05-10T09:55:40;16.20;99.90
14908;DHT22;7545;52.092;7.006;2023-05-10T09:58:06;16.30;99.90
14908;DHT22;7545;52.092;7.006;2023-05-10T10:00:39;16.30;99.90
14908;DHT22;7545;52.092;7.006;2023-05-10T10:03:05;16.30;99.90
14908;DHT22;7545;52.092;7.006;2023-05-10T10:05:33;16.30;99.90
14908;DHT22;7545;52.092;7.006;2023-05-10T10:08:01;16.40;99.90
14908;DHT22;7545;52.092;7.006;2023-05-10T10:10:28;16.40;99.90
14908;DHT22;7545;52.092;7.006;2023-05-10T10:12:54;16.50;99.90
14908;DHT22;7545;52.092;7.006;2023-05-10T10:15:23;16.50;99.90
14908;DHT22;7545;52.092;7.006;2023-05-10T10:17:50;16.60;99.90
14908;DHT22;7545;52.092;7.006;2023-05-10T10:20:17;16.60;99.90
14908;DHT22;7545;52.092;7.006;2023-05-10T10:22:43;16.70;99.90
14908;DHT22;7545;52.092;7.006;2023-05-10T10:25:15;16.80;99.90
14908;DHT22;7545;52.092;7.006;2023-05-10T10:30:45;17.00;99.90
14908;DHT22;7545;52.092;7.006;2023-05-10T10:33:49;17.10;99.90
14908;DHT22;7545;52.092;7.006;2023-05-10T10:36:16;17.30;99.90
14908;DHT22;7545;52.092;7.006;2023-05-10T10:44:37;17.60;99.90
14908;DHT22;7545;52.092;7.006;2023-05-10T10:49:53;17.80;99.90
14908;DHT22;7545;52.092;7.006;2023-05-10T10:52:35;17.80;99.90
14908;DHT22;7545;52.092;7.006;2023-05-10T10:55:19;17.90;99.90
14908;DHT22;7545;52.092;7.006;2023-05-10T10:57:52;18.00;99.90
14908;DHT22;7545;52.092;7.006;2023-05-10T11:00:24;18.00;99.90
14908;DHT22;7545;52.092;7.006;2023-05-10T11:02:53;18.00;99.90
14908;DHT22;7545;52.092;7.006;2023-05-10T11:07:56;17.90;99.90
14908;DHT22;7545;52.092;7.006;2023-05-10T11:10:23;18.00;99.90
14908;DHT22;7545;52.092;7.006;2023-05-10T11:13:08;18.00;99.90
14908;DHT22;7545;52.092;7.006;2023-05-10T11:15:48;18.00;99.90
14908;DHT22;7545;52.092;7.006;2023-05-10T11:18:23;17.90;99.90
14908;DHT22;7545;52.092;7.006;2023-05-10T11:21:16;17.80;99.90
14908;DHT22;7545;52.092;7.006;2023-05-10T11:23:49;17.50;99.90
14908;DHT22;7545;52.092;7.006;2023-05-10T11:26:15;17.40;99.90
14908;DHT22;7545;52.092;7.006;2023-05-10T11:28:43;17.30;99.90
14908;DHT22;7545;52.092;7.006;2023-05-10T11:31:09;17.30;99.90
14908;DHT22;7545;52.092;7.006;2023-05-10T11:33:48;17.30;99.90
14908;DHT22;7545;52.092;7.006;2023-05-10T11:36:16;17.30;99.90
14908;DHT22;7545;52.092;7.006;2023-05-10T11:38:42;17.20;99.90
14908;DHT22;7545;52.092;7.006;2023-05-10T11:41:08;17.20;99.90
14908;DHT22;7545;52.092;7.006;2023-05-10T11:43:35;17.10;99.90
14908;DHT22;7545;52.092;7.006;2023-05-10T11:46:05;17.10;99.90
14908;DHT22;7545;52.092;7.006;2023-05-10T11:48:31;17.10;99.90
14908;DHT22;7545;52.092;7.006;2023-05-10T11:50:57;17.10;99.90
14908;DHT22;7545;52.092;7.006;2023-05-10T11:53:25;17.10;99.90
14908;DHT22;7545;52.092;7.006;2023-05-10T11:55:51;17.10;99.90
14908;DHT22;7545;52.092;7.006;2023-05-10T11:58:18;17.10;99.90
14908;DHT22;7545;52.092;7.006;2023-05-10T12:00:44;17.10;99.90
14908;DHT22;7545;52.092;7.006;2023-05-10T12:03:11;17.10;99.90
14908;DHT22;7545;52.092;7.006;2023-05-10T12:05:37;17.10;99.90
14908;DHT22;7545;52.092;7.006;2023-05-10T12:08:23;17.00;99.90
14908;DHT22;7545;52.092;7.006;2023-05-10T12:10:49;17.00;99.90
14908;DHT22;7545;52.092;7.006;2023-05-10T12:13:15;17.00;99.90
14908;DHT22;7545;52.092;7.006;2023-05-10T12:15:42;17.00;99.90
14908;DHT22;7545;52.092;7.006;2023-05-10T12:18:09;17.00;99.90
14908;DHT22;7545;52.092;7.006;2023-05-10T12:20:36;17.10;99.90
14908;DHT22;7545;52.092;7.006;2023-05-10T12:23:02;17.10;99.90
14908;DHT22;7545;52.092;7.006;2023-05-10T12:25:36;17.20;99.90
14908;DHT22;7545;52.092;7.006;2023-05-10T12:28:04;17.20;99.90
14908;DHT22;7545;52.092;7.006;2023-05-10T12:30:32;17.20;99.90
14908;DHT22;7545;52.092;7.006;2023-05-10T12:33:02;17.30;99.90
14908;DHT22;7545;52.092;7.006;2023-05-10T12:35:32;17.20;99.90
14908;DHT22;7545;52.092;7.006;2023-05-10T12:37:58;17.30;99.90
14908;DHT22;7545;52.092;7.006;2023-05-10T12:40:24;17.30;99.90
14908;DHT22;7545;52.092;7.006;2023-05-10T12:42:50;17.40;99.90
14908;DHT22;7545;52.092;7.006;2023-05-10T12:45:17;17.50;99.90
14908;DHT22;7545;52.092;7.006;2023-05-10T12:47:43;17.60;99.90
14908;DHT22;7545;52.092;7.006;2023-05-10T12:50:09;17.80;99.90
14908;DHT22;7545;52.092;7.006;2023-05-10T12:52:35;18.00;99.90
14908;DHT22;7545;52.092;7.006;2023-05-10T12:55:01;18.10;99.90
14908;DHT22;7545;52.092;7.006;2023-05-10T12:57:28;18.20;99.90
14908;DHT22;7545;52.092;7.006;2023-05-10T12:59:54;18.30;99.90
14908;DHT22;7545;52.092;7.006;2023-05-10T13:02:20;18.30;99.90
14908;DHT22;7545;52.092;7.006;2023-05-10T13:04:47;18.40;99.90
14908;DHT22;7545;52.092;7.006;2023-05-10T13:07:13;18.50;99.90
14908;DHT22;7545;52.092;7.006;2023-05-10T13:09:39;18.50;99.90
14908;DHT22;7545;52.092;7.006;2023-05-10T13:12:05;18.50;99.90
14908;DHT22;7545;52.092;7.006;2023-05-10T13:14:31;18.50;99.90
14908;DHT22;7545;52.092;7.006;2023-05-10T13:16:57;18.40;99.90
14908;DHT22;7545;52.092;7.006;2023-05-10T13:19:22;18.40;99.90
14908;DHT22;7545;52.092;7.006;2023-05-10T13:21:48;18.30;99.90
14908;DHT22;7545;52.092;7.006;2023-05-10T13:24:14;18.30;99.90
14908;DHT22;7545;52.092;7.006;2023-05-10T13:26:40;18.20;99.90
14908;DHT22;7545;52.092;7.006;2023-05-10T13:29:06;18.10;99.90
14908;DHT22;7545;52.092;7.006;2023-05-10T13:31:33;18.10;99.90
14908;DHT22;7545;52.092;7.006;2023-05-10T13:33:58;18.10;99.90
14908;DHT22;7545;52.092;7.006;2023-05-10T13:36:24;18.10;99.90
14908;DHT22;7545;52.092;7.006;2023-05-10T13:38:49;18.00;99.90
14908;DHT22;7545;52.092;7.006;2023-05-10T13:41:15;18.10;99.90
14908;DHT22;7545;52.092;7.006;2023-05-10T13:43:41;18.00;99.90
14908;DHT22;7545;52.092;7.006;2023-05-10T13:46:06;18.00;99.90
14908;DHT22;7545;52.092;7.006;2023-05-10T13:48:32;18.10;99.90
14908;DHT22;7545;52.092;7.006;2023-05-10T13:50:57;18.10;99.90
14908;DHT22;7545;52.092;7.006;2023-05-10T13:53:23;18.00;99.90
14908;DHT22;7545;52.092;7.006;2023-05-10T13:55:49;18.00;99.90
14908;DHT22;7545;52.092;7.006;2023-05-10T13:58:14;17.90;99.90
14908;DHT22;7545;52.092;7.006;2023-05-10T14:00:40;18.00;99.90
14908;DHT22;7545;52.092;7.006;2023-05-10T14:03:05;18.00;99.90
14908;DHT22;7545;52.092;7.006;2023-05-10T14:05:32;18.00;99.90
14908;DHT22;7545;52.092;7.006;2023-05-10T14:07:57;18.00;99.90
14908;DHT22;7545;52.092;7.006;2023-05-10T14:10:23;18.00;99.90
14908;DHT22;7545;52.092;7.006;2023-05-10T14:12:49;18.00;99.90
14908;DHT22;7545;52.092;7.006;2023-05-10T14:15:15;18.10;99.90
14908;DHT22;7545;52.092;7.006;2023-05-10T14:17:41;18.20;99.90
14908;DHT22;7545;52.092;7.006;2023-05-10T14:20:07;18.20;99.90
14908;DHT22;7545;52.092;7.006;2023-05-10T14:22:33;18.30;99.90
14908;DHT22;7545;52.092;7.006;2023-05-10T14:25:00;18.40;99.90
14908;DHT22;7545;52.092;7.006;2023-05-10T14:27:29;18.40;99.90
14908;DHT22;7545;52.092;7.006;2023-05-10T14:29:54;18.50;99.90
14908;DHT22;7545;52.092;7.006;2023-05-10T14:32:20;18.50;99.90
14908;DHT22;7545;52.092;7.006;2023-05-10T14:34:45;18.60;99.90
14908;DHT22;7545;52.092;7.006;2023-05-10T14:37:13;18.60;99.90
14908;DHT22;7545;52.092;7.006;2023-05-10T14:39:39;18.50;99.90
14908;DHT22;7545;52.092;7.006;2023-05-10T14:42:04;18.60;99.90
14908;DHT22;7545;52.092;7.006;2023-05-10T14:44:30;18.60;99.90
14908;DHT22;7545;52.092;7.006;2023-05-10T14:46:55;18.70;99.90
14908;DHT22;7545;52.092;7.006;2023-05-10T14:49:22;18.80;99.90
14908;DHT22;7545;52.092;7.006;2023-05-10T14:51:53;19.00;99.90
14908;DHT22;7545;52.092;7.006;2023-05-10T14:54:18;19.00;99.90
14908;DHT22;7545;52.092;7.006;2023-05-10T14:56:44;19.10;99.90
14908;DHT22;7545;52.092;7.006;2023-05-10T14:59:10;19.20;99.90
14908;DHT22;7545;52.092;7.006;2023-05-10T15:01:35;19.30;99.90
14908;DHT22;7545;52.092;7.006;2023-05-10T15:04:04;19.30;99.90
14908;DHT22;7545;52.092;7.006;2023-05-10T15:06:34;19.30;99.90
14908;DHT22;7545;52.092;7.006;2023-05-10T15:09:01;19.40;99.90
14908;DHT22;7545;52.092;7.006;2023-05-10T15:11:27;19.40;99.90
14908;DHT22;7545;52.092;7.006;2023-05-10T15:13:52;19.40;99.90
14908;DHT22;7545;52.092;7.006;2023-05-10T15:16:18;19.40;99.90
14908;DHT22;7545;52.092;7.006;2023-05-10T15:18:48;19.40;99.90
14908;DHT22;7545;52.092;7.006;2023-05-10T15:21:19;19.40;99.90
14908;DHT22;7545;52.092;7.006;2023-05-10T15:23:45;19.40;99.90
14908;DHT22;7545;52.092;7.006;2023-05-10T15:26:10;19.40;99.90
14908;DHT22;7545;52.092;7.006;2023-05-10T15:28:36;19.40;99.90
14908;DHT22;7545;52.092;7.006;2023-05-10T15:31:01;19.40;99.90
14908;DHT22;7545;52.092;7.006;2023-05-10T15:33:28;19.40;99.90
14908;DHT22;7545;52.092;7.006;2023-05-10T15:35:54;19.40;99.90
14908;DHT22;7545;52.092;7.006;2023-05-10T15:38:19;19.50;99.90
14908;DHT22;7545;52.092;7.006;2023-05-10T15:40:45;19.50;99.90
14908;DHT22;7545;52.092;7.006;2023-05-10T15:43:10;19.40;99.90
14908;DHT22;7545;52.092;7.006;2023-05-10T15:45:36;19.30;99.90
14908;DHT22;7545;52.092;7.006;2023-05-10T15:48:02;19.40;99.90
14908;DHT22;7545;52.092;7.006;2023-05-10T15:50:27;19.30;99.90
14908;DHT22;7545;52.092;7.006;2023-05-10T15:52:53;19.30;99.90
14908;DHT22;7545;52.092;7.006;2023-05-10T15:55:19;19.30;99.90
14908;DHT22;7545;52.092;7.006;2023-05-10T15:57:45;19.20;99.90
14908;DHT22;7545;52.092;7.006;2023-05-10T16:00:11;19.30;99.90
14908;DHT22;7545;52.092;7.006;2023-05-10T16:02:41;19.20;99.90
14908;DHT22;7545;52.092;7.006;2023-05-10T16:05:09;19.30;99.90
14908;DHT22;7545;52.092;7.006;2023-05-10T16:07:41;19.20;99.90
14908;DHT22;7545;52.092;7.006;2023-05-10T16:10:09;19.20;99.90
14908;DHT22;7545;52.092;7.006;2023-05-10T16:12:35;19.20;99.90
14908;DHT22;7545;52.092;7.006;2023-05-10T16:15:01;19.00;99.90
14908;DHT22;7545;52.092;7.006;2023-05-10T16:17:27;19.00;99.90
14908;DHT22;7545;52.092;7.006;2023-05-10T16:19:52;19.00;99.90
14908;DHT22;7545;52.092;7.006;2023-05-10T16:22:18;19.10;99.90